Time;durP1;ratioP1;P1;durP2;ratioP2;P2;SDS_P1;SDS_P2;PMS_P1;PMS_P2;Temp;Humidity;BMP_temperature;BMP_pressure;BME280_temperature;BME280_humidity;BME280_pressure;Samples;Min_cycle;Max_cycle;Signal;HPM_P1;HPM_P2
2023/12/19 00:00:30;;;;;;;3.17;2.05;;;22.50;49.50;;;;;;4846812;29;95311;-84
2023/12/19 00:02:56;;;;;;;2.97;2.03;;;22.50;49.40;;;;;;4848987;29;92741;-85
2023/12/19 00:05:23;;;;;;;3.47;2.10;;;22.50;49.40;;;;;;4847403;28;91430;-85
2023/12/19 00:07:48;;;;;;;3.63;1.98;;;22.40;49.20;;;;;;4846571;28;94083;-82
2023/12/19 00:10:14;;;;;;;2.83;2.08;;;22.40;49.50;;;;;;4848650;28;94829;-84
2023/12/19 00:12:40;;;;;;;3.50;2.38;;;22.40;49.50;;;;;;4847506;29;94100;-83
2023/12/19 00:15:07;;;;;;;2.97;2.30;;;22.40;49.50;;;;;;4846848;28;92688;-84
2023/12/19 00:17:32;;;;;;;5.63;2.60;;;22.30;49.40;;;;;;4846460;28;93211;-82
2023/12/19 00:19:58;;;;;;;3.28;2.60;;;22.30;49.50;;;;;;4846445;29;96438;-84
2023/12/19 00:22:24;;;;;;;3.13;2.15;;;22.20;49.50;;;;;;4846769;28;92975;-83
2023/12/19 00:24:51;;;;;;;3.08;1.88;;;22.20;49.40;;;;;;4847848;28;92640;-83
2023/12/19 00:27:18;;;;;;;4.47;2.33;;;22.20;49.70;;;;;;4846870;29;93577;-86
2023/12/19 00:29:43;;;;;;;3.30;1.95;;;22.20;49.70;;;;;;4845639;29;95086;-82
2023/12/19 00:32:09;;;;;;;2.40;2.17;;;22.20;49.60;;;;;;4848636;28;92498;-83
2023/12/19 00:34:35;;;;;;;2.25;1.75;;;22.20;49.60;;;;;;4847366;29;91903;-83
2023/12/19 00:37:00;;;;;;;2.53;2.13;;;22.20;49.60;;;;;;4846480;28;94650;-83
2023/12/19 00:39:27;;;;;;;3.40;2.28;;;22.10;49.70;;;;;;4847386;29;96237;-84
2023/12/19 00:41:53;;;;;;;2.83;2.28;;;22.10;49.60;;;;;;4850455;28;93103;-84
2023/12/19 00:44:19;;;;;;;2.17;1.92;;;22.10;49.60;;;;;;4850739;28;92918;-83
2023/12/19 00:46:45;;;;;;;2.75;1.88;;;22.10;49.80;;;;;;4850608;28;93299;-84
2023/12/19 00:49:11;;;;;;;3.22;2.20;;;22.00;49.70;;;;;;4851823;28;92777;-84
2023/12/19 00:51:37;;;;;;;1.95;1.50;;;22.00;49.70;;;;;;4853174;28;93447;-83
2023/12/19 00:54:03;;;;;;;3.25;2.10;;;22.00;49.70;;;;;;4850820;28;92016;-83
2023/12/19 00:56:29;;;;;;;1.80;1.63;;;22.00;49.80;;;;;;4852115;28;93125;-83
2023/12/19 00:58:55;;;;;;;2.63;2.10;;;22.00;49.80;;;;;;4850090;28;92755;-84
2023/12/19 01:01:24;;;;;;;3.75;2.00;;;22.00;49.80;;;;;;4850348;28;93926;-83
2023/12/19 01:03:50;;;;;;;2.47;2.03;;;21.90;49.80;;;;;;4850173;29;92864;-83
2023/12/19 01:06:16;;;;;;;2.88;2.17;;;21.90;49.70;;;;;;4850795;28;94314;-83
2023/12/19 01:08:42;;;;;;;2.70;2.03;;;21.90;49.70;;;;;;4850769;28;93427;-85
2023/12/19 01:11:09;;;;;;;2.63;2.20;;;21.90;49.80;;;;;;4850893;28;93064;-83
2023/12/19 01:13:38;;;;;;;3.63;2.38;;;21.90;49.70;;;;;;4849024;28;92658;-84
2023/12/19 01:16:04;;;;;;;3.28;2.13;;;21.90;49.70;;;;;;4849852;28;92837;-82
2023/12/19 01:18:31;;;;;;;3.08;2.25;;;21.80;49.80;;;;;;4851208;28;93966;-82
2023/12/19 01:20:56;;;;;;;3.53;2.03;;;21.80;50.30;;;;;;4851225;28;93574;-82
2023/12/19 01:23:23;;;;;;;4.07;2.40;;;21.80;49.80;;;;;;4851155;28;100101;-83
2023/12/19 01:25:49;;;;;;;2.75;2.15;;;21.80;49.80;;;;;;4849732;28;95139;-82
2023/12/19 01:28:15;;;;;;;3.92;2.50;;;21.80;49.90;;;;;;4850254;28;92410;-82
2023/12/19 01:30:41;;;;;;;3.72;2.28;;;21.80;50.00;;;;;;4850701;28;93231;-83
2023/12/19 01:33:09;;;;;;;3.00;2.30;;;21.70;49.90;;;;;;4848257;28;92113;-82
2023/12/19 01:35:36;;;;;;;2.40;2.00;;;21.70;50.00;;;;;;4848408;28;93188;-83
2023/12/19 01:38:01;;;;;;;2.47;1.98;;;21.70;49.90;;;;;;4848930;28;93138;-83
2023/12/19 01:40:34;;;;;;;2.47;2.08;;;21.70;49.80;;;;;;4850135;29;92349;-82
2023/12/19 01:43:00;;;;;;;2.53;1.95;;;21.70;49.90;;;;;;4849071;28;91813;-82
2023/12/19 01:45:27;;;;;;;4.28;1.92;;;21.70;50.00;;;;;;4849236;28;92891;-82
2023/12/19 01:47:53;;;;;;;3.03;2.00;;;21.60;49.90;;;;;;4848991;28;92841;-83
2023/12/19 01:50:19;;;;;;;3.38;2.38;;;21.60;49.90;;;;;;4850353;28;94165;-83
2023/12/19 01:52:49;;;;;;;2.30;2.03;;;21.60;50.00;;;;;;4848534;28;93057;-83
2023/12/19 01:55:15;;;;;;;2.28;2.00;;;21.60;49.90;;;;;;4848650;28;93083;-83
2023/12/19 01:57:42;;;;;;;3.05;2.10;;;21.60;49.90;;;;;;4848879;28;93278;-82
2023/12/19 02:00:08;;;;;;;2.80;1.90;;;21.60;49.80;;;;;;4848441;28;92980;-83
2023/12/19 02:02:34;;;;;;;2.20;1.88;;;21.60;49.90;;;;;;4850239;28;92960;-84
2023/12/19 02:05:01;;;;;;;2.10;1.88;;;21.50;49.80;;;;;;4850161;28;92767;-85
2023/12/19 02:07:27;;;;;;;2.38;1.73;;;21.50;49.70;;;;;;4850034;28;92743;-84
2023/12/19 02:09:53;;;;;;;2.33;2.00;;;21.50;49.80;;;;;;4850999;28;93172;-83
2023/12/19 02:12:19;;;;;;;2.28;1.92;;;21.50;49.80;;;;;;4851073;28;92586;-81
2023/12/19 02:14:45;;;;;;;2.72;1.92;;;21.50;49.80;;;;;;4850071;28;94088;-85
2023/12/19 02:17:14;;;;;;;3.15;2.30;;;21.50;49.90;;;;;;4850522;28;93410;-84
2023/12/19 02:19:48;;;;;;;2.83;1.92;;;21.40;49.60;;;;;;4850065;28;92516;-83
2023/12/19 02:22:14;;;;;;;2.20;1.75;;;21.40;49.80;;;;;;4847171;28;92703;-83
2023/12/19 02:24:40;;;;;;;3.42;2.50;;;21.40;50.00;;;;;;4849416;28;93095;-83
2023/12/19 02:27:07;;;;;;;2.58;1.95;;;21.40;49.90;;;;;;4833494;29;94728;-83
2023/12/19 02:29:33;;;;;;;2.75;2.03;;;21.40;49.90;;;;;;4849581;28;93141;-83
2023/12/19 02:31:58;;;;;;;1.73;1.60;;;21.40;49.80;;;;;;4853064;28;91410;-83
2023/12/19 02:34:24;;;;;;;3.88;2.10;;;21.40;49.90;;;;;;4850841;29;94753;-82
2023/12/19 02:36:51;;;;;;;3.90;2.20;;;21.40;49.80;;;;;;4851463;28;92000;-82
2023/12/19 02:39:16;;;;;;;2.45;1.90;;;21.30;49.80;;;;;;4849523;29;93592;-83
2023/12/19 02:41:42;;;;;;;2.47;1.98;;;21.30;49.90;;;;;;4849718;28;92683;-83
2023/12/19 02:44:08;;;;;;;2.78;2.17;;;21.30;50.00;;;;;;4849431;28;94017;-83
2023/12/19 02:46:33;;;;;;;2.15;1.67;;;21.30;49.90;;;;;;4849928;28;93473;-83
2023/12/19 02:49:00;;;;;;;2.33;2.00;;;21.30;50.00;;;;;;4850897;28;92344;-83
2023/12/19 02:51:26;;;;;;;2.28;1.98;;;21.30;49.90;;;;;;4851453;28;92819;-83
2023/12/19 02:53:56;;;;;;;2.50;1.75;;;21.30;50.00;;;;;;4847857;28;93167;-83
2023/12/19 02:56:21;;;;;;;2.85;2.00;;;21.30;49.80;;;;;;4848950;28;95204;-84
2023/12/19 02:58:47;;;;;;;2.55;2.00;;;21.20;50.00;;;;;;4847751;28;93277;-82
2023/12/19 03:01:13;;;;;;;3.53;2.53;;;21.20;50.00;;;;;;4850295;28;92612;-85
2023/12/19 03:03:42;;;;;;;2.65;1.88;;;21.20;50.00;;;;;;4848469;29;93989;-83
2023/12/19 03:06:08;;;;;;;2.13;1.90;;;21.20;50.30;;;;;;4847884;28;98099;-83
2023/12/19 03:08:37;;;;;;;2.78;1.95;;;21.20;50.00;;;;;;4847536;28;92886;-82
2023/12/19 03:11:03;;;;;;;1.98;1.85;;;21.20;50.00;;;;;;4847403;28;92724;-83
2023/12/19 03:13:28;;;;;;;2.25;1.95;;;21.20;50.00;;;;;;4846622;29;95977;-83
2023/12/19 03:15:54;;;;;;;2.35;2.03;;;21.20;50.10;;;;;;4846717;28;92489;-82
2023/12/19 03:18:24;;;;;;;1.98;1.63;;;21.20;50.00;;;;;;4848130;28;92436;-84
2023/12/19 03:20:51;;;;;;;2.88;2.03;;;21.20;50.00;;;;;;4848223;28;91255;-82
2023/12/19 03:23:18;;;;;;;3.13;2.17;;;21.10;50.00;;;;;;4849645;28;93318;-83
2023/12/19 03:25:44;;;;;;;1.88;1.75;;;21.10;49.90;;;;;;4849515;28;93673;-85
2023/12/19 03:28:10;;;;;;;2.25;1.88;;;21.10;49.90;;;;;;4849440;28;93486;-83
2023/12/19 03:30:36;;;;;;;2.55;2.08;;;21.10;50.00;;;;;;4850935;28;92183;-82
2023/12/19 03:33:02;;;;;;;1.63;1.52;;;21.10;50.00;;;;;;4849200;28;92912;-83
2023/12/19 03:35:28;;;;;;;2.45;1.80;;;21.10;50.00;;;;;;4849250;29;92744;-84
2023/12/19 03:37:53;;;;;;;3.55;2.00;;;21.10;50.10;;;;;;4849373;28;93102;-83
2023/12/19 03:40:19;;;;;;;2.70;1.90;;;21.10;50.00;;;;;;4850845;28;92823;-83
2023/12/19 03:42:45;;;;;;;2.03;1.83;;;21.10;50.10;;;;;;4849375;28;93557;-82
2023/12/19 03:45:11;;;;;;;2.75;1.80;;;21.10;50.20;;;;;;4848556;28;92803;-85
2023/12/19 03:47:38;;;;;;;1.85;1.70;;;21.00;50.00;;;;;;4849090;28;92736;-85
2023/12/19 03:50:04;;;;;;;2.90;2.08;;;21.00;50.00;;;;;;4849024;28;93042;-83
2023/12/19 03:52:30;;;;;;;2.03;1.80;;;21.00;50.00;;;;;;4861364;28;94965;-84
2023/12/19 03:54:56;;;;;;;2.30;1.83;;;21.00;50.10;;;;;;4849992;28;94034;-84
2023/12/19 03:57:22;;;;;;;2.28;2.05;;;21.00;50.10;;;;;;4851285;28;92801;-83
2023/12/19 03:59:47;;;;;;;2.40;1.95;;;21.00;50.10;;;;;;4849889;29;92870;-85
2023/12/19 04:02:13;;;;;;;2.08;1.75;;;21.00;50.10;;;;;;4849958;28;93146;-83
2023/12/19 04:04:39;;;;;;;2.17;1.83;;;21.00;50.20;;;;;;4849517;28;92779;-84
2023/12/19 04:07:04;;;;;;;2.22;2.03;;;21.00;50.20;;;;;;4847957;28;92657;-84
2023/12/19 04:09:30;;;;;;;3.00;1.85;;;21.00;50.20;;;;;;4851726;28;91906;-83
2023/12/19 04:11:58;;;;;;;1.70;1.60;;;20.90;50.20;;;;;;4849778;28;92768;-83
2023/12/19 04:14:24;;;;;;;2.05;1.70;;;21.00;50.20;;;;;;4848654;28;92230;-82
2023/12/19 04:16:49;;;;;;;2.05;1.77;;;20.90;50.20;;;;;;4850300;28;93436;-84
2023/12/19 04:19:15;;;;;;;1.70;1.60;;;20.90;50.20;;;;;;4853674;28;92451;-82
2023/12/19 04:21:41;;;;;;;1.95;1.67;;;20.90;50.30;;;;;;4854075;28;93162;-84
2023/12/19 04:24:07;;;;;;;2.25;1.80;;;20.90;50.20;;;;;;4852082;28;92687;-83
2023/12/19 04:26:33;;;;;;;2.20;1.75;;;20.90;50.30;;;;;;4853356;28;92371;-83
2023/12/19 04:28:58;;;;;;;2.22;1.67;;;20.90;50.20;;;;;;4853375;28;92416;-83
2023/12/19 04:31:24;;;;;;;2.85;2.17;;;20.90;50.10;;;;;;4854480;28;93304;-82
2023/12/19 04:33:49;;;;;;;2.13;1.85;;;20.90;50.20;;;;;;4853393;28;93123;-82
2023/12/19 04:36:15;;;;;;;2.08;1.88;;;20.90;50.20;;;;;;4853780;28;92680;-83
2023/12/19 04:38:41;;;;;;;1.65;1.42;;;20.80;50.10;;;;;;4856036;28;92852;-83
2023/12/19 04:41:06;;;;;;;2.50;1.70;;;20.80;50.00;;;;;;4861011;28;94674;-85
2023/12/19 04:43:32;;;;;;;3.33;1.77;;;20.90;50.10;;;;;;4863554;29;93597;-82
2023/12/19 04:46:01;;;;;;;2.08;1.88;;;20.90;50.30;;;;;;4879220;28;92575;-82
2023/12/19 04:48:27;;;;;;;2.17;1.85;;;20.80;50.20;;;;;;4864944;29;93174;-84
2023/12/19 04:50:52;;;;;;;2.28;1.80;;;20.80;50.00;;;;;;4860596;29;92866;-82
2023/12/19 04:53:19;;;;;;;2.28;1.83;;;20.80;50.10;;;;;;4861659;28;92580;-83
2023/12/19 04:55:45;;;;;;;2.58;2.00;;;20.80;50.10;;;;;;4865785;29;91975;-83
2023/12/19 04:58:10;;;;;;;1.52;1.42;;;20.80;50.10;;;;;;4875147;28;91234;-83
2023/12/19 05:00:36;;;;;;;1.63;1.50;;;20.80;50.10;;;;;;4881972;28;93214;-84
2023/12/19 05:03:03;;;;;;;1.83;1.67;;;20.80;50.20;;;;;;4879488;28;91666;-83
2023/12/19 05:05:29;;;;;;;2.63;1.67;;;20.80;50.20;;;;;;4878630;28;93715;-82
2023/12/19 05:07:54;;;;;;;1.90;1.55;;;20.70;50.20;;;;;;4870577;28;92184;-84
2023/12/19 05:10:20;;;;;;;1.67;1.27;;;20.70;50.30;;;;;;4865024;28;92093;-83
2023/12/19 05:12:46;;;;;;;2.40;1.63;;;20.70;50.30;;;;;;4862759;29;93126;-83
2023/12/19 05:15:11;;;;;;;1.67;1.58;;;20.70;50.20;;;;;;4862018;29;91903;-83
2023/12/19 05:17:37;;;;;;;1.60;1.42;;;20.70;50.20;;;;;;4858595;28;92490;-84
2023/12/19 05:20:03;;;;;;;2.30;1.45;;;20.70;50.10;;;;;;4855617;29;94001;-85
2023/12/19 05:22:29;;;;;;;1.77;1.67;;;20.70;50.20;;;;;;4852912;28;92418;-83
2023/12/19 05:24:54;;;;;;;1.65;1.50;;;20.70;50.20;;;;;;4851644;29;93869;-84
2023/12/19 05:27:21;;;;;;;2.13;1.63;;;20.70;50.20;;;;;;4851851;28;92682;-84
2023/12/19 05:29:47;;;;;;;2.60;1.90;;;20.70;50.30;;;;;;4851245;28;95612;-83
2023/12/19 05:32:13;;;;;;;1.52;1.30;;;20.70;50.30;;;;;;4850924;28;93429;-83
2023/12/19 05:34:38;;;;;;;2.22;1.80;;;20.70;50.20;;;;;;4850695;29;92922;-84
2023/12/19 05:37:04;;;;;;;1.63;1.52;;;20.70;50.20;;;;;;4849906;29;92625;-83
2023/12/19 05:39:33;;;;;;;1.50;1.40;;;20.60;50.30;;;;;;4849416;28;92565;-83
2023/12/19 05:41:58;;;;;;;2.05;1.70;;;20.70;50.20;;;;;;4849669;28;92930;-83
2023/12/19 05:44:24;;;;;;;1.95;1.63;;;20.70;50.30;;;;;;4850892;29;92095;-82
2023/12/19 05:46:51;;;;;;;1.75;1.63;;;20.60;50.20;;;;;;4849190;28;91809;-83
2023/12/19 05:49:17;;;;;;;1.42;1.30;;;20.60;50.30;;;;;;4851233;28;93133;-83
2023/12/19 05:51:43;;;;;;;2.50;1.75;;;20.60;50.10;;;;;;4850662;28;95077;-83
2023/12/19 05:54:10;;;;;;;1.85;1.45;;;20.60;50.20;;;;;;4849228;28;93415;-84
2023/12/19 05:56:35;;;;;;;2.38;1.50;;;20.60;50.30;;;;;;4851451;28;92826;-83
2023/12/19 05:59:01;;;;;;;1.60;1.50;;;20.60;50.30;;;;;;4850350;28;93863;-85
2023/12/19 06:01:27;;;;;;;1.92;1.70;;;20.60;50.20;;;;;;4849742;28;98481;-84
2023/12/19 06:03:54;;;;;;;1.50;1.40;;;20.60;50.10;;;;;;4850581;28;93116;-83
2023/12/19 06:06:20;;;;;;;1.95;1.50;;;20.60;50.20;;;;;;4850822;29;92112;-87
2023/12/19 06:08:46;;;;;;;1.60;1.40;;;20.60;50.30;;;;;;4850220;28;92811;-84
2023/12/19 06:11:12;;;;;;;2.03;1.58;;;20.60;50.30;;;;;;4849583;28;92767;-84
2023/12/19 06:13:38;;;;;;;2.15;1.83;;;20.60;50.30;;;;;;4848656;28;94567;-85
2023/12/19 06:16:07;;;;;;;1.60;1.50;;;20.60;50.30;;;;;;4849288;29;92917;-83
2023/12/19 06:18:33;;;;;;;1.40;1.30;;;20.60;50.30;;;;;;4848133;28;94420;-84
2023/12/19 06:21:00;;;;;;;1.75;1.33;;;20.50;50.60;;;;;;4850507;28;93609;-85
2023/12/19 06:23:27;;;;;;;2.33;1.73;;;20.60;50.30;;;;;;4849360;28;92232;-85
2023/12/19 06:25:52;;;;;;;1.52;1.27;;;20.60;50.30;;;;;;4848968;28;92693;-84
2023/12/19 06:28:18;;;;;;;2.28;1.95;;;20.50;50.20;;;;;;4847798;29;95562;-85
2023/12/19 06:30:44;;;;;;;2.05;1.75;;;20.50;50.40;;;;;;4849352;28;92000;-84
2023/12/19 06:33:10;;;;;;;2.53;1.48;;;20.50;50.10;;;;;;4849738;28;92568;-85
2023/12/19 06:35:41;;;;;;;1.50;1.40;;;20.50;50.30;;;;;;4849869;29;92179;-82
2023/12/19 06:38:06;;;;;;;1.40;1.30;;;20.50;50.20;;;;;;4848553;29;92818;-85
2023/12/19 06:40:32;;;;;;;1.35;1.20;;;20.50;50.30;;;;;;4847110;28;93538;-84
2023/12/19 06:42:58;;;;;;;1.50;1.13;;;20.50;50.00;;;;;;4846764;28;94147;-83
2023/12/19 06:45:23;;;;;;;1.80;1.50;;;20.50;50.10;;;;;;4847693;29;92902;-82
2023/12/19 06:47:49;;;;;;;1.50;1.40;;;20.50;50.20;;;;;;4846670;29;94631;-82
2023/12/19 06:50:16;;;;;;;1.52;1.40;;;20.50;50.30;;;;;;4847994;28;93056;-84
2023/12/19 06:52:42;;;;;;;2.08;1.50;;;20.50;50.30;;;;;;4848015;28;92150;-82
2023/12/19 06:55:11;;;;;;;2.28;1.73;;;20.50;50.50;;;;;;4847271;28;92911;-84
2023/12/19 06:57:38;;;;;;;3.17;1.40;;;20.50;50.50;;;;;;4848225;28;93204;-82
2023/12/19 07:00:06;;;;;;;2.00;1.50;;;20.60;50.40;;;;;;4847670;28;92986;-83
2023/12/19 07:02:31;;;;;;;1.42;1.15;;;20.60;50.30;;;;;;4846015;29;92481;-81
2023/12/19 07:04:57;;;;;;;1.75;1.50;;;20.60;50.30;;;;;;4847681;28;92814;-83
2023/12/19 07:07:24;;;;;;;1.25;1.15;;;20.70;50.40;;;;;;4846975;28;95122;-82
2023/12/19 07:09:50;;;;;;;1.52;1.00;;;20.70;50.30;;;;;;4846627;29;94807;-83
2023/12/19 07:12:15;;;;;;;2.60;1.30;;;20.70;50.40;;;;;;4849162;28;92383;-82
2023/12/19 07:14:41;;;;;;;1.02;0.93;;;20.80;50.50;;;;;;4846191;28;92156;-81
2023/12/19 07:17:07;;;;;;;1.60;1.40;;;20.70;50.30;;;;;;4846048;29;94215;-82
2023/12/19 07:19:33;;;;;;;2.03;1.65;;;20.80;50.40;;;;;;4846763;28;92945;-82
2023/12/19 07:21:59;;;;;;;2.10;1.50;;;20.80;50.30;;;;;;4846788;28;92788;-83
2023/12/19 07:24:25;;;;;;;1.58;1.30;;;20.80;50.30;;;;;;4847297;28;92214;-81
2023/12/19 07:26:52;;;;;;;1.58;1.20;;;20.90;50.60;;;;;;4845253;29;92626;-82
2023/12/19 07:29:18;;;;;;;3.55;1.10;;;20.90;50.60;;;;;;4846948;28;92958;-82
2023/12/19 07:31:43;;;;;;;1.27;1.10;;;20.80;50.60;;;;;;4846606;28;93356;-81
2023/12/19 07:34:09;;;;;;;2.60;1.38;;;20.80;50.60;;;;;;4847316;28;93130;-86
2023/12/19 07:36:35;;;;;;;2.30;1.30;;;20.90;50.00;;;;;;4847964;28;92875;-84
2023/12/19 07:39:01;;;;;;;7.55;2.40;;;20.90;50.00;;;;;;4846738;28;95768;-89
2023/12/19 07:41:27;;;;;;;3.03;1.50;;;20.90;50.30;;;;;;4848660;28;92908;-84
2023/12/19 07:43:56;;;;;;;3.35;1.25;;;20.90;50.20;;;;;;4846418;28;92663;-83
2023/12/19 07:46:22;;;;;;;2.25;1.27;;;20.90;50.40;;;;;;4862037;28;97232;-83
2023/12/19 07:48:48;;;;;;;2.85;1.30;;;21.00;50.40;;;;;;4849824;28;92859;-83
2023/12/19 07:51:20;;;;;;;3.30;1.45;;;21.10;50.50;;;;;;4848870;28;92443;-84
2023/12/19 07:53:46;;;;;;;4.53;1.40;;;21.20;50.30;;;;;;4848461;28;93114;-84
2023/12/19 07:56:12;;;;;;;2.72;1.20;;;21.30;50.50;;;;;;4848172;28;94698;-83
2023/12/19 07:58:38;;;;;;;2.20;1.30;;;21.30;50.30;;;;;;4848836;28;93360;-83
2023/12/19 08:01:04;;;;;;;3.33;1.13;;;21.40;50.20;;;;;;4850408;28;92795;-84
2023/12/19 08:03:30;;;;;;;2.20;1.13;;;21.40;50.20;;;;;;4849673;28;93021;-86
2023/12/19 08:05:56;;;;;;;2.67;1.52;;;21.40;49.80;;;;;;4848240;28;93289;-85
2023/12/19 08:08:23;;;;;;;1.63;1.05;;;21.50;50.20;;;;;;4847297;28;93376;-85
2023/12/19 08:10:50;;;;;;;2.13;1.42;;;21.50;50.10;;;;;;4849607;28;92800;-84
2023/12/19 08:13:16;;;;;;;3.03;1.23;;;21.50;50.00;;;;;;4849044;28;92111;-84
2023/12/19 08:15:42;;;;;;;2.40;1.17;;;21.60;50.00;;;;;;4849204;28;93135;-83
2023/12/19 08:18:09;;;;;;;1.80;1.10;;;21.70;49.90;;;;;;4850197;28;96786;-82
2023/12/19 08:20:35;;;;;;;1.75;1.10;;;21.70;49.80;;;;;;4849252;28;93418;-83
2023/12/19 08:23:01;;;;;;;1.85;1.20;;;21.80;49.80;;;;;;4848510;28;93121;-83
2023/12/19 08:25:28;;;;;;;1.45;1.02;;;21.80;49.60;;;;;;4849162;28;93306;-84
2023/12/19 08:27:53;;;;;;;2.63;1.15;;;21.80;49.70;;;;;;4851837;28;94026;-85
2023/12/19 08:30:20;;;;;;;2.40;1.80;;;21.80;49.60;;;;;;4851408;28;92458;-83
2023/12/19 08:32:45;;;;;;;3.00;1.25;;;21.80;49.60;;;;;;4849485;28;93067;-84
2023/12/19 08:35:11;;;;;;;2.08;1.42;;;21.80;49.70;;;;;;4848865;29;95209;-84
2023/12/19 08:37:36;;;;;;;4.88;1.40;;;21.80;49.70;;;;;;4850014;29;91909;-84
2023/12/19 08:40:03;;;;;;;4.30;1.35;;;21.90;49.70;;;;;;4848632;29;92631;-82
2023/12/19 08:42:30;;;;;;;1.05;0.80;;;21.90;49.80;;;;;;4851812;28;92560;-83
2023/12/19 08:44:56;;;;;;;1.42;1.13;;;21.90;49.90;;;;;;4850231;29;95417;-82
2023/12/19 08:47:22;;;;;;;1.95;1.10;;;21.90;49.90;;;;;;4852951;28;93351;-84
2023/12/19 08:49:52;;;;;;;2.22;1.10;;;21.90;49.80;;;;;;4852718;28;93058;-83
2023/12/19 08:52:19;;;;;;;2.25;1.30;;;21.90;49.80;;;;;;4850480;28;92781;-82
2023/12/19 08:54:44;;;;;;;3.35;0.90;;;21.90;49.90;;;;;;4850129;28;93121;-85
2023/12/19 08:57:10;;;;;;;2.85;1.23;;;21.90;50.00;;;;;;4849954;28;92820;-83
2023/12/19 08:59:36;;;;;;;1.90;0.98;;;21.90;50.00;;;;;;4849531;28;92817;-85
2023/12/19 09:02:02;;;;;;;3.45;1.70;;;21.90;49.90;;;;;;4849079;28;92230;-84
2023/12/19 09:04:30;;;;;;;2.78;1.42;;;22.00;49.80;;;;;;4849819;28;93150;-85
2023/12/19 09:06:56;;;;;;;1.70;1.10;;;22.00;49.50;;;;;;4852005;29;93633;-85
2023/12/19 09:09:22;;;;;;;3.35;1.02;;;21.90;49.60;;;;;;4855029;28;93467;-85
2023/12/19 09:11:47;;;;;;;4.10;1.45;;;22.00;49.70;;;;;;4852772;28;92947;-87
2023/12/19 09:14:15;;;;;;;2.28;1.15;;;22.00;49.70;;;;;;4850432;28;92840;-84
2023/12/19 09:16:40;;;;;;;1.58;1.20;;;22.00;49.70;;;;;;4850600;29;93114;-84
2023/12/19 09:19:07;;;;;;;2.20;1.10;;;22.00;49.60;;;;;;4851439;28;92026;-84
2023/12/19 09:21:33;;;;;;;2.20;1.20;;;22.10;49.80;;;;;;4853494;28;93244;-84
2023/12/19 09:23:58;;;;;;;1.75;1.02;;;22.10;49.70;;;;;;4852598;28;92392;-83
2023/12/19 09:26:24;;;;;;;2.25;1.13;;;22.10;49.70;;;;;;4851790;28;94082;-85
2023/12/19 09:28:49;;;;;;;1.83;1.10;;;22.10;49.70;;;;;;4852416;28;92187;-83
2023/12/19 09:31:16;;;;;;;2.10;1.15;;;22.10;49.80;;;;;;4852210;28;92612;-84
2023/12/19 09:33:41;;;;;;;3.53;1.45;;;22.10;49.70;;;;;;4851810;28;93655;-83
2023/12/19 09:36:18;;;;;;;7.70;1.83;;;22.10;49.70;;;;;;4851439;28;93667;-86
2023/12/19 09:38:45;;;;;;;3.67;1.58;;;22.10;48.90;;;;;;4851179;28;92469;-85
2023/12/19 09:41:11;;;;;;;2.55;1.45;;;22.10;48.60;;;;;;4848252;29;92893;-84
2023/12/19 09:43:37;;;;;;;4.35;1.77;;;22.10;48.90;;;;;;4847443;29;93354;-83
2023/12/19 09:46:02;;;;;;;4.82;1.60;;;22.20;48.80;;;;;;4847532;28;93232;-84
2023/12/19 09:48:38;;;;;;;4.90;1.48;;;22.10;48.80;;;;;;4849313;28;92409;-84
2023/12/19 09:51:05;;;;;;;4.00;1.58;;;22.10;48.90;;;;;;4849756;28;92397;-85
2023/12/19 09:53:32;;;;;;;2.47;1.38;;;22.20;48.80;;;;;;4847033;28;92669;-85
2023/12/19 09:55:59;;;;;;;3.25;1.50;;;22.20;48.90;;;;;;4849479;28;93358;-85
2023/12/19 09:58:25;;;;;;;2.53;1.30;;;22.20;48.80;;;;;;4848810;28;94341;-84
2023/12/19 10:00:52;;;;;;;2.47;1.25;;;22.20;48.70;;;;;;4847471;28;92922;-84
2023/12/19 10:03:18;;;;;;;1.52;1.13;;;22.20;48.80;;;;;;4849211;29;93640;-85
2023/12/19 10:05:44;;;;;;;3.60;1.90;;;22.20;48.70;;;;;;4848623;28;92826;-84
2023/12/19 10:08:10;;;;;;;2.42;1.13;;;22.20;48.80;;;;;;4848685;28;93013;-83
2023/12/19 10:10:53;;;;;;;1.98;1.35;;;22.20;48.70;;;;;;4849541;28;92564;-82
2023/12/19 10:13:33;;;;;;;2.78;1.50;;;22.20;48.70;;;;;;4850637;28;93138;-83
2023/12/19 10:16:08;;;;;;;1.67;1.25;;;22.20;48.70;;;;;;4851790;28;92482;-84
2023/12/19 10:18:34;;;;;;;2.90;1.23;;;22.20;48.70;;;;;;4851463;28;92408;-85
2023/12/19 10:21:13;;;;;;;2.90;1.55;;;22.20;48.60;;;;;;4850631;28;93547;-83
2023/12/19 10:23:42;;;;;;;3.47;1.17;;;22.20;48.80;;;;;;4848978;28;94337;-84
2023/12/19 10:26:08;;;;;;;2.45;1.25;;;22.30;48.70;;;;;;4849041;29;95244;-82
2023/12/19 10:28:35;;;;;;;2.35;1.08;;;22.20;49.20;;;;;;4850360;28;92818;-84
2023/12/19 10:31:15;;;;;;;2.20;1.33;;;22.20;48.60;;;;;;4850312;29;92425;-84
2023/12/19 10:33:49;;;;;;;1.58;1.20;;;22.30;48.80;;;;;;4865070;28;93512;-84
2023/12/19 10:36:41;;;;;;;2.50;1.27;;;22.30;48.70;;;;;;4849358;28;97126;-84
2023/12/19 10:39:07;;;;;;;1.75;1.13;;;22.30;48.80;;;;;;4847646;29;92434;-82
2023/12/19 10:41:36;;;;;;;2.75;1.40;;;22.30;48.80;;;;;;4849317;29;92061;-83
2023/12/19 10:44:02;;;;;;;1.70;0.90;;;22.30;48.70;;;;;;4850310;29;94725;-84
2023/12/19 10:46:32;;;;;;;2.20;0.80;;;22.30;48.70;;;;;;4849428;29;95433;-85
2023/12/19 10:49:02;;;;;;;2.42;1.55;;;22.30;48.70;;;;;;4849778;28;93887;-83
2023/12/19 10:51:41;;;;;;;1.40;1.15;;;22.30;48.60;;;;;;4852070;28;92764;-86
2023/12/19 10:54:11;;;;;;;1.77;1.05;;;22.30;48.50;;;;;;4848262;29;95638;-83
2023/12/19 10:57:04;;;;;;;2.10;0.85;;;22.30;48.60;;;;;;4847929;28;93152;-84
2023/12/19 10:59:33;;;;;;;3.20;1.10;;;22.30;48.50;;;;;;4849206;29;92048;-83
2023/12/19 11:02:18;;;;;;;;;;;22.30;48.60;;;;;;4850709;28;92818;-83
2023/12/19 11:04:56;;;;;;;1.60;1.20;;;22.30;48.70;;;;;;4850481;28;93058;-83
2023/12/19 11:07:24;;;;;;;1.85;1.23;;;22.30;48.60;;;;;;4854874;29;92416;-86
2023/12/19 11:09:57;;;;;;;5.70;1.25;;;22.30;48.20;;;;;;4852607;28;92135;-84
2023/12/19 11:12:23;;;;;;;2.30;1.35;;;22.30;48.30;;;;;;4866481;28;92569;-86
2023/12/19 11:14:49;;;;;;;4.05;1.67;;;22.30;48.30;;;;;;4869844;29;93228;-90
2023/12/19 11:17:28;;;;;;;2.35;1.25;;;22.20;48.20;;;;;;4883859;28;95982;-87
2023/12/19 11:20:00;;;;;;;2.95;1.40;;;22.20;48.60;;;;;;4885587;28;92179;-90
2023/12/19 11:22:40;;;;;;;2.58;1.50;;;22.20;47.90;;;;;;4872637;28;91551;-87
2023/12/19 11:25:20;;;;;;;9.43;2.08;;;22.20;47.90;;;;;;4866107;28;93470;-91
2023/12/19 11:27:55;;;;;;;5.47;1.67;;;22.20;47.90;;;;;;4876336;28;92798;-88
2023/12/19 11:30:36;;;;;;;2.92;1.73;;;22.20;48.30;;;;;;4881126;28;92058;-90
2023/12/19 11:33:07;;;;;;;1.63;1.40;;;22.20;48.40;;;;;;4881303;28;91312;-87
2023/12/19 11:35:33;;;;;;;3.92;1.67;;;22.30;48.50;;;;;;4878925;28;92500;-90
2023/12/19 11:38:14;;;;;;;2.50;1.38;;;22.30;48.80;;;;;;4867180;29;91970;-88
2023/12/19 11:40:47;;;;;;;3.35;1.05;;;22.30;48.80;;;;;;4865991;29;93884;-87
2023/12/19 11:43:28;;;;;;;4.85;1.40;;;22.40;49.10;;;;;;4864912;29;93039;-91
2023/12/19 11:46:03;;;;;;;4.43;1.20;;;22.40;49.20;;;;;;4861514;29;92715;-92
2023/12/19 11:48:44;;;;;;;4.60;1.60;;;22.40;49.10;;;;;;4862490;29;93608;-89
2023/12/19 11:51:10;;;;;;;5.93;1.48;;;22.40;49.40;;;;;;4854372;28;92098;-88
2023/12/19 11:53:37;;;;;;;3.08;1.40;;;22.50;49.30;;;;;;4851068;29;92194;-86
2023/12/19 11:56:10;;;;;;;4.68;1.27;;;22.50;49.30;;;;;;4849904;29;92632;-90
2023/12/19 11:58:36;;;;;;;5.13;1.67;;;22.60;49.30;;;;;;4851439;28;92933;-87
2023/12/19 12:01:03;;;;;;;5.03;1.58;;;22.60;49.40;;;;;;4850159;29;92295;-89
2023/12/19 12:03:29;;;;;;;2.55;1.13;;;22.60;49.40;;;;;;4850392;28;91937;-86
2023/12/19 12:05:55;;;;;;;7.55;2.22;;;22.70;50.20;;;;;;4846525;28;94584;-89
2023/12/19 12:08:24;;;;;;;4.18;1.40;;;22.70;49.30;;;;;;4849713;28;94240;-88
2023/12/19 12:11:06;;;;;;;8.38;1.30;;;22.70;49.50;;;;;;4854544;28;92841;-93
2023/12/19 12:13:34;;;;;;;2.75;1.63;;;22.80;49.40;;;;;;4850887;28;92667;-90
2023/12/19 12:16:00;;;;;;;6.88;1.70;;;22.80;49.30;;;;;;4850460;28;92614;-86
2023/12/19 12:18:30;;;;;;;4.20;1.35;;;22.80;49.20;;;;;;4855700;28;93108;-91
2023/12/19 12:21:04;;;;;;;;;;;22.80;49.30;;;;;;4857400;29;92941;-90
2023/12/19 12:23:30;;;;;;;2.88;1.23;;;22.90;49.20;;;;;;4854877;28;92200;-90
2023/12/19 12:25:56;;;;;;;3.15;1.42;;;22.90;49.30;;;;;;4852779;29;93370;-86
2023/12/19 12:28:26;;;;;;;6.30;1.75;;;23.00;49.40;;;;;;4853945;28;92999;-91
2023/12/19 12:30:53;;;;;;;;;;;23.00;49.40;;;;;;4854462;29;93422;-90
2023/12/19 12:33:22;;;;;;;6.15;1.52;;;23.00;49.30;;;;;;4855469;29;92545;-89
2023/12/19 12:35:47;;;;;;;5.33;1.60;;;23.00;50.00;;;;;;4851684;28;93651;-86
2023/12/19 12:38:17;;;;;;;8.00;1.67;;;23.10;49.50;;;;;;4848242;28;92852;-86
2023/12/19 12:40:58;;;;;;;3.78;1.23;;;23.10;49.50;;;;;;4851089;28;92377;-87
2023/12/19 12:43:39;;;;;;;4.20;1.52;;;23.20;49.50;;;;;;4850499;28;92278;-89
2023/12/19 12:46:12;;;;;;;9.80;1.60;;;23.20;49.40;;;;;;4851197;28;93585;-87
2023/12/19 12:48:41;;;;;;;10.43;2.17;;;23.20;49.30;;;;;;4851178;29;95907;-87